sensor_id;sensor_type;location;lat;lon;timestamp;P1;durP1;ratioP1;P2;durP2;ratioP2
10469;SDS011;5282;47.052;15.458;2023-03-13T00:01:54;4.87;;;4.63;;
10469;SDS011;5282;47.052;15.458;2023-03-13T00:04:21;5.00;;;4.70;;
10469;SDS011;5282;47.052;15.458;2023-03-13T00:06:49;4.63;;;4.43;;
10469;SDS011;5282;47.052;15.458;2023-03-13T00:09:16;4.70;;;4.43;;
10469;SDS011;5282;47.052;15.458;2023-03-13T00:11:45;4.83;;;4.57;;
10469;SDS011;5282;47.052;15.458;2023-03-13T00:14:12;5.70;;;5.20;;
10469;SDS011;5282;47.052;15.458;2023-03-13T00:16:39;5.30;;;5.00;;
10469;SDS011;5282;47.052;15.458;2023-03-13T00:19:07;5.53;;;5.10;;
10469;SDS011;5282;47.052;15.458;2023-03-13T00:21:34;5.63;;;5.23;;
10469;SDS011;5282;47.052;15.458;2023-03-13T00:24:04;5.77;;;5.47;;
10469;SDS011;5282;47.052;15.458;2023-03-13T00:26:31;7.63;;;7.00;;
10469;SDS011;5282;47.052;15.458;2023-03-13T00:28:58;6.10;;;5.70;;
10469;SDS011;5282;47.052;15.458;2023-03-13T00:31:26;6.40;;;6.00;;
10469;SDS011;5282;47.052;15.458;2023-03-13T00:33:56;6.33;;;5.93;;
10469;SDS011;5282;47.052;15.458;2023-03-13T00:36:24;6.37;;;5.97;;
10469;SDS011;5282;47.052;15.458;2023-03-13T00:38:53;6.80;;;6.40;;
10469;SDS011;5282;47.052;15.458;2023-03-13T00:41:23;7.50;;;5.93;;
10469;SDS011;5282;47.052;15.458;2023-03-13T00:43:52;6.63;;;6.13;;
10469;SDS011;5282;47.052;15.458;2023-03-13T00:46:22;6.80;;;6.30;;
10469;SDS011;5282;47.052;15.458;2023-03-13T00:48:53;6.83;;;6.27;;
10469;SDS011;5282;47.052;15.458;2023-03-13T00:51:21;6.90;;;6.30;;
10469;SDS011;5282;47.052;15.458;2023-03-13T00:53:51;6.90;;;6.40;;
10469;SDS011;5282;47.052;15.458;2023-03-13T00:56:18;7.40;;;6.70;;
10469;SDS011;5282;47.052;15.458;2023-03-13T00:58:50;6.43;;;5.93;;
10469;SDS011;5282;47.052;15.458;2023-03-13T01:01:20;7.20;;;6.50;;
10469;SDS011;5282;47.052;15.458;2023-03-13T01:03:50;7.00;;;6.40;;
10469;SDS011;5282;47.052;15.458;2023-03-13T01:06:19;7.37;;;6.67;;
10469;SDS011;5282;47.052;15.458;2023-03-13T01:08:48;7.07;;;6.37;;
10469;SDS011;5282;47.052;15.458;2023-03-13T01:11:16;6.43;;;5.97;;
10469;SDS011;5282;47.052;15.458;2023-03-13T01:13:44;7.33;;;6.73;;
10469;SDS011;5282;47.052;15.458;2023-03-13T01:16:14;7.20;;;6.60;;
10469;SDS011;5282;47.052;15.458;2023-03-13T01:18:43;8.27;;;7.47;;
10469;SDS011;5282;47.052;15.458;2023-03-13T01:21:12;7.50;;;6.83;;
10469;SDS011;5282;47.052;15.458;2023-03-13T01:23:40;7.43;;;6.83;;
10469;SDS011;5282;47.052;15.458;2023-03-13T01:26:07;7.80;;;7.20;;
10469;SDS011;5282;47.052;15.458;2023-03-13T01:28:35;7.80;;;7.10;;
10469;SDS011;5282;47.052;15.458;2023-03-13T01:31:08;7.67;;;6.87;;
10469;SDS011;5282;47.052;15.458;2023-03-13T01:33:38;6.90;;;6.20;;
10469;SDS011;5282;47.052;15.458;2023-03-13T01:36:06;7.17;;;6.57;;
10469;SDS011;5282;47.052;15.458;2023-03-13T01:38:34;7.37;;;6.73;;
10469;SDS011;5282;47.052;15.458;2023-03-13T01:41:01;10.87;;;7.33;;
10469;SDS011;5282;47.052;15.458;2023-03-13T01:43:29;8.47;;;6.90;;
10469;SDS011;5282;47.052;15.458;2023-03-13T01:45:59;7.33;;;6.63;;
10469;SDS011;5282;47.052;15.458;2023-03-13T01:48:34;7.63;;;6.80;;
10469;SDS011;5282;47.052;15.458;2023-03-13T01:51:08;7.73;;;7.03;;
10469;SDS011;5282;47.052;15.458;2023-03-13T01:53:39;8.23;;;7.40;;
10469;SDS011;5282;47.052;15.458;2023-03-13T01:56:11;6.97;;;6.43;;
10469;SDS011;5282;47.052;15.458;2023-03-13T01:58:40;7.50;;;6.90;;
10469;SDS011;5282;47.052;15.458;2023-03-13T02:01:08;8.10;;;7.40;;
10469;SDS011;5282;47.052;15.458;2023-03-13T02:03:36;7.73;;;7.03;;
10469;SDS011;5282;47.052;15.458;2023-03-13T02:06:04;7.33;;;6.73;;
10469;SDS011;5282;47.052;15.458;2023-03-13T02:08:34;7.80;;;7.10;;
10469;SDS011;5282;47.052;15.458;2023-03-13T02:11:09;7.60;;;7.00;;
10469;SDS011;5282;47.052;15.458;2023-03-13T02:13:43;7.07;;;6.53;;
10469;SDS011;5282;47.052;15.458;2023-03-13T02:16:10;7.53;;;6.90;;
10469;SDS011;5282;47.052;15.458;2023-03-13T02:18:38;7.53;;;6.80;;
10469;SDS011;5282;47.052;15.458;2023-03-13T02:21:09;6.93;;;6.43;;
10469;SDS011;5282;47.052;15.458;2023-03-13T02:23:45;6.83;;;6.23;;
10469;SDS011;5282;47.052;15.458;2023-03-13T02:26:19;7.10;;;6.40;;
10469;SDS011;5282;47.052;15.458;2023-03-13T02:28:46;7.83;;;7.03;;
10469;SDS011;5282;47.052;15.458;2023-03-13T02:31:14;7.70;;;6.63;;
10469;SDS011;5282;47.052;15.458;2023-03-13T02:33:42;6.93;;;6.43;;
10469;SDS011;5282;47.052;15.458;2023-03-13T02:36:09;9.57;;;6.90;;
10469;SDS011;5282;47.052;15.458;2023-03-13T02:38:40;8.07;;;6.87;;
10469;SDS011;5282;47.052;15.458;2023-03-13T02:41:13;7.47;;;6.87;;
10469;SDS011;5282;47.052;15.458;2023-03-13T02:43:43;7.40;;;6.70;;
10469;SDS011;5282;47.052;15.458;2023-03-13T02:46:10;7.23;;;6.53;;
10469;SDS011;5282;47.052;15.458;2023-03-13T02:48:42;8.20;;;7.10;;
10469;SDS011;5282;47.052;15.458;2023-03-13T02:51:13;7.67;;;6.77;;
10469;SDS011;5282;47.052;15.458;2023-03-13T02:53:44;7.77;;;7.07;;
10469;SDS011;5282;47.052;15.458;2023-03-13T02:56:14;7.87;;;7.17;;
10469;SDS011;5282;47.052;15.458;2023-03-13T02:58:47;7.73;;;6.90;;
10469;SDS011;5282;47.052;15.458;2023-03-13T03:01:16;8.23;;;7.20;;
10469;SDS011;5282;47.052;15.458;2023-03-13T03:03:43;7.60;;;6.90;;
10469;SDS011;5282;47.052;15.458;2023-03-13T03:06:10;8.00;;;7.07;;
10469;SDS011;5282;47.052;15.458;2023-03-13T03:08:37;7.37;;;6.87;;
10469;SDS011;5282;47.052;15.458;2023-03-13T03:11:06;7.07;;;6.40;;
10469;SDS011;5282;47.052;15.458;2023-03-13T03:13:36;7.27;;;6.67;;
10469;SDS011;5282;47.052;15.458;2023-03-13T03:16:07;6.30;;;5.77;;
10469;SDS011;5282;47.052;15.458;2023-03-13T03:18:36;6.13;;;5.73;;
10469;SDS011;5282;47.052;15.458;2023-03-13T03:21:06;5.63;;;5.13;;
10469;SDS011;5282;47.052;15.458;2023-03-13T03:23:34;5.47;;;5.07;;
10469;SDS011;5282;47.052;15.458;2023-03-13T03:26:02;5.57;;;5.17;;
10469;SDS011;5282;47.052;15.458;2023-03-13T03:28:30;5.20;;;4.80;;
10469;SDS011;5282;47.052;15.458;2023-03-13T03:31:02;4.33;;;4.03;;
10469;SDS011;5282;47.052;15.458;2023-03-13T03:33:33;4.43;;;4.20;;
10469;SDS011;5282;47.052;15.458;2023-03-13T03:36:01;4.73;;;4.43;;
10469;SDS011;5282;47.052;15.458;2023-03-13T03:38:30;5.17;;;4.73;;
10469;SDS011;5282;47.052;15.458;2023-03-13T03:40:57;4.23;;;4.03;;
10469;SDS011;5282;47.052;15.458;2023-03-13T03:43:24;5.00;;;4.70;;
10469;SDS011;5282;47.052;15.458;2023-03-13T03:45:51;5.20;;;4.90;;
10469;SDS011;5282;47.052;15.458;2023-03-13T03:48:18;5.27;;;4.97;;
10469;SDS011;5282;47.052;15.458;2023-03-13T03:50:47;6.33;;;5.83;;
10469;SDS011;5282;47.052;15.458;2023-03-13T03:53:14;5.60;;;5.00;;
10469;SDS011;5282;47.052;15.458;2023-03-13T03:55:43;5.83;;;5.40;;
10469;SDS011;5282;47.052;15.458;2023-03-13T03:58:10;5.30;;;4.90;;
10469;SDS011;5282;47.052;15.458;2023-03-13T04:00:38;5.00;;;4.70;;
10469;SDS011;5282;47.052;15.458;2023-03-13T04:03:05;5.30;;;5.00;;
10469;SDS011;5282;47.052;15.458;2023-03-13T04:05:34;6.23;;;5.73;;
10469;SDS011;5282;47.052;15.458;2023-03-13T04:08:05;5.30;;;4.90;;
10469;SDS011;5282;47.052;15.458;2023-03-13T04:10:32;5.37;;;4.90;;
10469;SDS011;5282;47.052;15.458;2023-03-13T04:12:59;5.50;;;5.10;;
10469;SDS011;5282;47.052;15.458;2023-03-13T04:15:27;6.57;;;6.07;;
10469;SDS011;5282;47.052;15.458;2023-03-13T04:17:54;5.47;;;5.17;;
10469;SDS011;5282;47.052;15.458;2023-03-13T04:20:21;6.27;;;5.67;;
10469;SDS011;5282;47.052;15.458;2023-03-13T04:22:48;7.47;;;5.97;;
10469;SDS011;5282;47.052;15.458;2023-03-13T04:25:17;7.00;;;6.40;;
10469;SDS011;5282;47.052;15.458;2023-03-13T04:27:43;8.20;;;6.70;;
10469;SDS011;5282;47.052;15.458;2023-03-13T04:30:11;11.63;;;8.33;;
10469;SDS011;5282;47.052;15.458;2023-03-13T04:32:38;10.77;;;8.40;;
10469;SDS011;5282;47.052;15.458;2023-03-13T04:35:06;10.13;;;8.53;;
10469;SDS011;5282;47.052;15.458;2023-03-13T04:37:34;9.33;;;8.00;;
10469;SDS011;5282;47.052;15.458;2023-03-13T04:40:00;9.97;;;8.17;;
10469;SDS011;5282;47.052;15.458;2023-03-13T04:42:29;10.47;;;8.40;;
10469;SDS011;5282;47.052;15.458;2023-03-13T04:44:56;11.93;;;8.27;;
10469;SDS011;5282;47.052;15.458;2023-03-13T04:47:23;8.97;;;7.50;;
10469;SDS011;5282;47.052;15.458;2023-03-13T04:49:50;11.67;;;8.33;;
10469;SDS011;5282;47.052;15.458;2023-03-13T04:52:17;12.93;;;8.00;;
10469;SDS011;5282;47.052;15.458;2023-03-13T04:54:44;9.50;;;7.77;;
10469;SDS011;5282;47.052;15.458;2023-03-13T04:57:11;12.63;;;8.13;;
10469;SDS011;5282;47.052;15.458;2023-03-13T04:59:39;9.20;;;8.30;;
10469;SDS011;5282;47.052;15.458;2023-03-13T05:02:07;14.07;;;8.47;;
10469;SDS011;5282;47.052;15.458;2023-03-13T05:04:35;10.97;;;8.17;;
10469;SDS011;5282;47.052;15.458;2023-03-13T05:07:02;10.90;;;8.57;;
10469;SDS011;5282;47.052;15.458;2023-03-13T05:09:29;11.97;;;8.47;;
10469;SDS011;5282;47.052;15.458;2023-03-13T05:11:56;10.30;;;8.33;;
10469;SDS011;5282;47.052;15.458;2023-03-13T05:14:23;9.43;;;7.53;;
10469;SDS011;5282;47.052;15.458;2023-03-13T05:16:52;7.87;;;7.17;;
10469;SDS011;5282;47.052;15.458;2023-03-13T05:19:18;11.20;;;7.80;;
10469;SDS011;5282;47.052;15.458;2023-03-13T05:21:45;10.80;;;7.67;;
10469;SDS011;5282;47.052;15.458;2023-03-13T05:24:12;10.60;;;7.17;;
10469;SDS011;5282;47.052;15.458;2023-03-13T05:26:39;7.97;;;7.17;;
10469;SDS011;5282;47.052;15.458;2023-03-13T05:29:06;8.03;;;7.00;;
10469;SDS011;5282;47.052;15.458;2023-03-13T05:31:33;11.07;;;6.83;;
10469;SDS011;5282;47.052;15.458;2023-03-13T05:34:04;9.43;;;6.57;;
10469;SDS011;5282;47.052;15.458;2023-03-13T05:36:31;9.10;;;6.60;;
10469;SDS011;5282;47.052;15.458;2023-03-13T05:38:58;12.27;;;7.43;;
10469;SDS011;5282;47.052;15.458;2023-03-13T05:41:25;13.13;;;6.23;;
10469;SDS011;5282;47.052;15.458;2023-03-13T05:43:52;7.70;;;6.60;;
10469;SDS011;5282;47.052;15.458;2023-03-13T05:46:19;8.37;;;6.70;;
10469;SDS011;5282;47.052;15.458;2023-03-13T05:48:46;9.90;;;6.43;;
10469;SDS011;5282;47.052;15.458;2023-03-13T05:51:16;7.83;;;6.50;;
10469;SDS011;5282;47.052;15.458;2023-03-13T05:53:43;7.87;;;6.40;;
10469;SDS011;5282;47.052;15.458;2023-03-13T05:56:10;7.77;;;6.73;;
10469;SDS011;5282;47.052;15.458;2023-03-13T05:58:39;11.80;;;6.83;;
10469;SDS011;5282;47.052;15.458;2023-03-13T06:01:07;10.43;;;6.80;;
10469;SDS011;5282;47.052;15.458;2023-03-13T06:03:35;8.03;;;6.50;;
10469;SDS011;5282;47.052;15.458;2023-03-13T06:06:02;7.17;;;6.57;;
10469;SDS011;5282;47.052;15.458;2023-03-13T06:08:31;8.33;;;6.70;;
10469;SDS011;5282;47.052;15.458;2023-03-13T06:10:58;7.30;;;6.57;;
10469;SDS011;5282;47.052;15.458;2023-03-13T06:13:25;8.60;;;6.57;;
10469;SDS011;5282;47.052;15.458;2023-03-13T06:15:53;10.53;;;7.37;;
10469;SDS011;5282;47.052;15.458;2023-03-13T06:18:22;8.47;;;6.60;;
10469;SDS011;5282;47.052;15.458;2023-03-13T06:20:54;11.97;;;6.83;;
10469;SDS011;5282;47.052;15.458;2023-03-13T06:23:22;9.80;;;6.70;;
10469;SDS011;5282;47.052;15.458;2023-03-13T06:25:51;8.53;;;7.00;;
10469;SDS011;5282;47.052;15.458;2023-03-13T06:28:18;14.27;;;10.23;;
10469;SDS011;5282;47.052;15.458;2023-03-13T06:30:45;17.43;;;10.57;;
10469;SDS011;5282;47.052;15.458;2023-03-13T06:33:12;13.77;;;8.20;;
10469;SDS011;5282;47.052;15.458;2023-03-13T06:35:42;8.97;;;6.83;;
10469;SDS011;5282;47.052;15.458;2023-03-13T06:38:09;7.70;;;6.67;;
10469;SDS011;5282;47.052;15.458;2023-03-13T06:40:36;9.57;;;7.30;;
10469;SDS011;5282;47.052;15.458;2023-03-13T06:43:05;13.87;;;8.03;;
10469;SDS011;5282;47.052;15.458;2023-03-13T06:45:33;8.77;;;7.80;;
10469;SDS011;5282;47.052;15.458;2023-03-13T06:48:01;7.93;;;7.00;;
10469;SDS011;5282;47.052;15.458;2023-03-13T06:50:28;8.33;;;7.53;;
10469;SDS011;5282;47.052;15.458;2023-03-13T06:52:56;7.97;;;7.17;;
10469;SDS011;5282;47.052;15.458;2023-03-13T06:55:22;9.97;;;7.03;;
10469;SDS011;5282;47.052;15.458;2023-03-13T06:57:50;7.60;;;6.97;;
10469;SDS011;5282;47.052;15.458;2023-03-13T07:00:19;8.07;;;7.07;;
10469;SDS011;5282;47.052;15.458;2023-03-13T07:02:46;10.20;;;9.27;;
10469;SDS011;5282;47.052;15.458;2023-03-13T07:05:13;8.13;;;7.10;;
10469;SDS011;5282;47.052;15.458;2023-03-13T07:07:40;8.57;;;7.47;;
10469;SDS011;5282;47.052;15.458;2023-03-13T07:10:08;7.67;;;6.97;;
10469;SDS011;5282;47.052;15.458;2023-03-13T07:12:36;10.30;;;7.37;;
10469;SDS011;5282;47.052;15.458;2023-03-13T07:15:04;9.43;;;7.20;;
10469;SDS011;5282;47.052;15.458;2023-03-13T07:17:33;8.47;;;7.20;;
10469;SDS011;5282;47.052;15.458;2023-03-13T07:20:00;7.57;;;7.07;;
10469;SDS011;5282;47.052;15.458;2023-03-13T07:22:28;7.80;;;7.10;;
10469;SDS011;5282;47.052;15.458;2023-03-13T07:24:57;7.40;;;6.80;;
10469;SDS011;5282;47.052;15.458;2023-03-13T07:27:27;9.00;;;6.80;;
10469;SDS011;5282;47.052;15.458;2023-03-13T07:29:54;7.50;;;6.80;;
10469;SDS011;5282;47.052;15.458;2023-03-13T07:32:21;7.30;;;6.60;;
10469;SDS011;5282;47.052;15.458;2023-03-13T07:34:49;8.40;;;7.40;;
10469;SDS011;5282;47.052;15.458;2023-03-13T07:37:16;7.90;;;7.20;;
10469;SDS011;5282;47.052;15.458;2023-03-13T07:39:43;8.03;;;7.23;;
10469;SDS011;5282;47.052;15.458;2023-03-13T07:42:10;10.17;;;6.70;;
10469;SDS011;5282;47.052;15.458;2023-03-13T07:44:37;9.00;;;7.43;;
10469;SDS011;5282;47.052;15.458;2023-03-13T07:47:04;10.73;;;7.63;;
10469;SDS011;5282;47.052;15.458;2023-03-13T07:49:31;8.63;;;7.53;;
10469;SDS011;5282;47.052;15.458;2023-03-13T07:52:05;11.20;;;7.83;;
10469;SDS011;5282;47.052;15.458;2023-03-13T07:54:32;9.60;;;7.33;;
10469;SDS011;5282;47.052;15.458;2023-03-13T07:57:00;11.67;;;7.90;;
10469;SDS011;5282;47.052;15.458;2023-03-13T07:59:27;9.43;;;7.80;;
10469;SDS011;5282;47.052;15.458;2023-03-13T08:01:54;10.47;;;7.93;;
10469;SDS011;5282;47.052;15.458;2023-03-13T08:04:21;9.33;;;7.37;;
10469;SDS011;5282;47.052;15.458;2023-03-13T08:06:48;8.70;;;7.83;;
10469;SDS011;5282;47.052;15.458;2023-03-13T08:09:17;10.87;;;7.70;;
10469;SDS011;5282;47.052;15.458;2023-03-13T08:11:44;7.80;;;7.13;;
10469;SDS011;5282;47.052;15.458;2023-03-13T08:14:12;9.07;;;7.43;;
10469;SDS011;5282;47.052;15.458;2023-03-13T08:16:39;8.00;;;7.03;;
10469;SDS011;5282;47.052;15.458;2023-03-13T08:19:06;7.93;;;7.13;;
10469;SDS011;5282;47.052;15.458;2023-03-13T08:21:33;8.87;;;7.27;;
10469;SDS011;5282;47.052;15.458;2023-03-13T08:24:02;7.97;;;7.07;;
10469;SDS011;5282;47.052;15.458;2023-03-13T08:26:32;8.43;;;7.37;;
10469;SDS011;5282;47.052;15.458;2023-03-13T08:29:02;13.67;;;8.47;;
10469;SDS011;5282;47.052;15.458;2023-03-13T08:31:31;8.47;;;7.03;;
10469;SDS011;5282;47.052;15.458;2023-03-13T08:34:00;10.07;;;7.67;;
10469;SDS011;5282;47.052;15.458;2023-03-13T08:36:27;7.93;;;7.23;;
10469;SDS011;5282;47.052;15.458;2023-03-13T08:38:57;8.53;;;7.63;;
10469;SDS011;5282;47.052;15.458;2023-03-13T08:41:26;10.27;;;7.70;;
10469;SDS011;5282;47.052;15.458;2023-03-13T08:43:56;9.27;;;7.50;;
10469;SDS011;5282;47.052;15.458;2023-03-13T08:46:27;9.43;;;8.27;;
10469;SDS011;5282;47.052;15.458;2023-03-13T08:48:55;9.80;;;7.70;;
10469;SDS011;5282;47.052;15.458;2023-03-13T08:51:23;13.23;;;8.37;;
10469;SDS011;5282;47.052;15.458;2023-03-13T08:53:52;8.83;;;8.13;;
10469;SDS011;5282;47.052;15.458;2023-03-13T08:56:20;12.27;;;8.70;;
10469;SDS011;5282;47.052;15.458;2023-03-13T08:58:49;9.07;;;8.17;;
10469;SDS011;5282;47.052;15.458;2023-03-13T09:01:18;9.87;;;8.03;;
10469;SDS011;5282;47.052;15.458;2023-03-13T09:03:45;10.53;;;7.47;;
10469;SDS011;5282;47.052;15.458;2023-03-13T09:06:12;10.80;;;8.03;;
10469;SDS011;5282;47.052;15.458;2023-03-13T09:08:39;9.30;;;7.87;;
10469;SDS011;5282;47.052;15.458;2023-03-13T09:11:07;8.90;;;7.43;;
10469;SDS011;5282;47.052;15.458;2023-03-13T09:13:36;8.67;;;7.30;;
10469;SDS011;5282;47.052;15.458;2023-03-13T09:16:05;9.23;;;7.63;;
10469;SDS011;5282;47.052;15.458;2023-03-13T09:18:36;10.23;;;7.30;;
10469;SDS011;5282;47.052;15.458;2023-03-13T09:21:04;8.13;;;7.37;;
10469;SDS011;5282;47.052;15.458;2023-03-13T09:23:32;7.93;;;7.33;;
10469;SDS011;5282;47.052;15.458;2023-03-13T09:26:00;7.77;;;7.10;;
10469;SDS011;5282;47.052;15.458;2023-03-13T09:28:26;8.40;;;6.70;;
10469;SDS011;5282;47.052;15.458;2023-03-13T09:30:53;7.77;;;7.07;;
10469;SDS011;5282;47.052;15.458;2023-03-13T09:33:21;7.40;;;6.60;;
10469;SDS011;5282;47.052;15.458;2023-03-13T09:35:50;7.37;;;6.60;;
10469;SDS011;5282;47.052;15.458;2023-03-13T09:38:17;7.10;;;6.40;;
10469;SDS011;5282;47.052;15.458;2023-03-13T09:40:46;6.30;;;5.90;;
10469;SDS011;5282;47.052;15.458;2023-03-13T09:43:18;6.67;;;5.63;;
10469;SDS011;5282;47.052;15.458;2023-03-13T09:45:53;5.67;;;5.27;;
10469;SDS011;5282;47.052;15.458;2023-03-13T09:48:27;5.50;;;4.90;;
10469;SDS011;5282;47.052;15.458;2023-03-13T09:51:00;5.40;;;4.90;;
10469;SDS011;5282;47.052;15.458;2023-03-13T09:53:34;5.70;;;5.27;;
10469;SDS011;5282;47.052;15.458;2023-03-13T09:56:10;6.07;;;5.47;;
10469;SDS011;5282;47.052;15.458;2023-03-13T09:58:43;5.20;;;4.90;;
10469;SDS011;5282;47.052;15.458;2023-03-13T10:01:16;5.60;;;5.07;;
10469;SDS011;5282;47.052;15.458;2023-03-13T10:03:51;6.60;;;5.83;;
10469;SDS011;5282;47.052;15.458;2023-03-13T10:06:26;7.47;;;5.50;;
10469;SDS011;5282;47.052;15.458;2023-03-13T10:08:56;8.43;;;5.47;;
10469;SDS011;5282;47.052;15.458;2023-03-13T10:11:26;7.60;;;5.40;;
10469;SDS011;5282;47.052;15.458;2023-03-13T10:13:59;6.57;;;5.33;;
10469;SDS011;5282;47.052;15.458;2023-03-13T10:16:32;8.23;;;6.10;;
10469;SDS011;5282;47.052;15.458;2023-03-13T10:19:10;6.60;;;5.73;;
10469;SDS011;5282;47.052;15.458;2023-03-13T10:21:41;6.00;;;5.30;;
10469;SDS011;5282;47.052;15.458;2023-03-13T10:24:13;6.07;;;5.20;;
10469;SDS011;5282;47.052;15.458;2023-03-13T10:26:44;5.43;;;4.90;;
10469;SDS011;5282;47.052;15.458;2023-03-13T10:29:19;6.80;;;5.10;;
10469;SDS011;5282;47.052;15.458;2023-03-13T10:31:50;5.50;;;5.00;;
10469;SDS011;5282;47.052;15.458;2023-03-13T10:34:21;4.80;;;4.33;;
10469;SDS011;5282;47.052;15.458;2023-03-13T10:36:54;4.93;;;4.60;;
10469;SDS011;5282;47.052;15.458;2023-03-13T10:39:24;5.17;;;4.77;;
10469;SDS011;5282;47.052;15.458;2023-03-13T10:41:55;4.77;;;4.33;;
10469;SDS011;5282;47.052;15.458;2023-03-13T10:44:29;6.33;;;4.97;;
10469;SDS011;5282;47.052;15.458;2023-03-13T10:46:58;5.20;;;4.80;;
10469;SDS011;5282;47.052;15.458;2023-03-13T10:49:27;4.90;;;4.50;;
10469;SDS011;5282;47.052;15.458;2023-03-13T10:51:57;4.83;;;4.10;;
10469;SDS011;5282;47.052;15.458;2023-03-13T10:54:27;5.30;;;4.60;;
10469;SDS011;5282;47.052;15.458;2023-03-13T10:57:09;4.73;;;4.37;;
10469;SDS011;5282;47.052;15.458;2023-03-13T10:59:48;4.73;;;4.33;;
10469;SDS011;5282;47.052;15.458;2023-03-13T11:02:21;6.33;;;4.33;;
10469;SDS011;5282;47.052;15.458;2023-03-13T11:04:52;3.83;;;3.63;;
10469;SDS011;5282;47.052;15.458;2023-03-13T11:07:26;3.80;;;3.50;;
10469;SDS011;5282;47.052;15.458;2023-03-13T11:09:58;3.77;;;3.50;;
10469;SDS011;5282;47.052;15.458;2023-03-13T11:12:28;3.97;;;3.60;;
10469;SDS011;5282;47.052;15.458;2023-03-13T11:14:59;4.10;;;3.90;;
10469;SDS011;5282;47.052;15.458;2023-03-13T11:17:29;3.50;;;3.40;;
10469;SDS011;5282;47.052;15.458;2023-03-13T11:20:07;3.30;;;3.13;;
10469;SDS011;5282;47.052;15.458;2023-03-13T11:22:49;4.00;;;3.80;;
10469;SDS011;5282;47.052;15.458;2023-03-13T11:25:21;4.37;;;4.07;;
10469;SDS011;5282;47.052;15.458;2023-03-13T11:27:56;3.80;;;3.60;;
10469;SDS011;5282;47.052;15.458;2023-03-13T11:30:42;3.70;;;3.50;;
10469;SDS011;5282;47.052;15.458;2023-03-13T11:33:22;3.97;;;3.67;;
10469;SDS011;5282;47.052;15.458;2023-03-13T11:35:56;3.70;;;3.50;;
10469;SDS011;5282;47.052;15.458;2023-03-13T11:38:33;4.20;;;3.90;;
10469;SDS011;5282;47.052;15.458;2023-03-13T11:41:05;3.97;;;3.67;;
10469;SDS011;5282;47.052;15.458;2023-03-13T11:43:47;3.80;;;3.50;;
10469;SDS011;5282;47.052;15.458;2023-03-13T11:46:32;3.93;;;3.60;;
10469;SDS011;5282;47.052;15.458;2023-03-13T11:49:16;3.70;;;3.50;;
10469;SDS011;5282;47.052;15.458;2023-03-13T11:51:56;4.17;;;3.87;;
10469;SDS011;5282;47.052;15.458;2023-03-13T11:57:37;3.70;;;3.40;;
10469;SDS011;5282;47.052;15.458;2023-03-13T12:00:14;3.83;;;3.63;;
10469;SDS011;5282;47.052;15.458;2023-03-13T12:02:48;3.60;;;3.50;;
10469;SDS011;5282;47.052;15.458;2023-03-13T12:05:19;4.13;;;3.80;;
10469;SDS011;5282;47.052;15.458;2023-03-13T12:07:48;3.70;;;3.60;;
10469;SDS011;5282;47.052;15.458;2023-03-13T12:10:22;4.60;;;4.30;;
10469;SDS011;5282;47.052;15.458;2023-03-13T12:12:55;4.40;;;4.20;;
10469;SDS011;5282;47.052;15.458;2023-03-13T12:15:28;3.97;;;3.67;;
10469;SDS011;5282;47.052;15.458;2023-03-13T12:17:59;4.70;;;4.33;;
10469;SDS011;5282;47.052;15.458;2023-03-13T12:20:33;4.37;;;3.73;;
10469;SDS011;5282;47.052;15.458;2023-03-13T12:23:13;5.40;;;4.13;;
10469;SDS011;5282;47.052;15.458;2023-03-13T12:25:46;4.30;;;3.93;;
10469;SDS011;5282;47.052;15.458;2023-03-13T12:28:19;3.70;;;3.50;;
10469;SDS011;5282;47.052;15.458;2023-03-13T12:30:52;4.27;;;3.97;;
10469;SDS011;5282;47.052;15.458;2023-03-13T12:33:25;4.30;;;4.07;;
10469;SDS011;5282;47.052;15.458;2023-03-13T12:36:03;3.73;;;3.57;;
10469;SDS011;5282;47.052;15.458;2023-03-13T12:38:36;3.90;;;3.70;;
10469;SDS011;5282;47.052;15.458;2023-03-13T12:43:52;4.33;;;3.80;;
10469;SDS011;5282;47.052;15.458;2023-03-13T12:46:28;3.50;;;3.30;;
10469;SDS011;5282;47.052;15.458;2023-03-13T12:52:23;3.17;;;3.07;;
10469;SDS011;5282;47.052;15.458;2023-03-13T12:55:26;3.23;;;2.93;;
10469;SDS011;5282;47.052;15.458;2023-03-13T12:58:13;2.97;;;2.87;;
10469;SDS011;5282;47.052;15.458;2023-03-13T13:00:48;2.53;;;2.43;;
10469;SDS011;5282;47.052;15.458;2023-03-13T13:03:25;4.30;;;2.37;;
10469;SDS011;5282;47.052;15.458;2023-03-13T13:05:58;2.00;;;2.00;;
10469;SDS011;5282;47.052;15.458;2023-03-13T13:08:30;2.40;;;2.30;;
10469;SDS011;5282;47.052;15.458;2023-03-13T13:17:15;2.63;;;2.47;;
10469;SDS011;5282;47.052;15.458;2023-03-13T13:19:48;3.07;;;2.87;;
10469;SDS011;5282;47.052;15.458;2023-03-13T13:25:27;3.47;;;2.40;;
10469;SDS011;5282;47.052;15.458;2023-03-13T13:28:11;3.40;;;3.10;;
10469;SDS011;5282;47.052;15.458;2023-03-13T13:31:01;3.17;;;3.07;;
10469;SDS011;5282;47.052;15.458;2023-03-13T13:34:17;3.10;;;2.90;;
10469;SDS011;5282;47.052;15.458;2023-03-13T13:37:24;3.73;;;3.43;;
10469;SDS011;5282;47.052;15.458;2023-03-13T13:39:53;2.93;;;2.83;;
10469;SDS011;5282;47.052;15.458;2023-03-13T13:42:43;3.30;;;2.93;;
10469;SDS011;5282;47.052;15.458;2023-03-13T13:45:26;2.80;;;2.70;;
10469;SDS011;5282;47.052;15.458;2023-03-13T13:48:14;4.03;;;2.80;;
10469;SDS011;5282;47.052;15.458;2023-03-13T13:53:56;3.37;;;3.10;;
10469;SDS011;5282;47.052;15.458;2023-03-13T13:56:35;2.97;;;2.77;;
10469;SDS011;5282;47.052;15.458;2023-03-13T14:04:59;4.00;;;2.97;;
10469;SDS011;5282;47.052;15.458;2023-03-13T14:07:35;5.10;;;3.40;;
10469;SDS011;5282;47.052;15.458;2023-03-13T14:10:14;3.37;;;3.07;;
10469;SDS011;5282;47.052;15.458;2023-03-13T14:12:47;2.90;;;2.70;;
10469;SDS011;5282;47.052;15.458;2023-03-13T14:15:20;3.40;;;3.20;;
10469;SDS011;5282;47.052;15.458;2023-03-13T14:17:49;5.00;;;3.27;;
10469;SDS011;5282;47.052;15.458;2023-03-13T14:20:18;5.40;;;3.50;;
10469;SDS011;5282;47.052;15.458;2023-03-13T14:23:00;7.27;;;3.43;;
10469;SDS011;5282;47.052;15.458;2023-03-13T14:25:40;4.30;;;3.00;;
10469;SDS011;5282;47.052;15.458;2023-03-13T14:28:16;3.30;;;3.00;;
10469;SDS011;5282;47.052;15.458;2023-03-13T14:30:45;2.97;;;2.70;;
10469;SDS011;5282;47.052;15.458;2023-03-13T14:33:13;3.20;;;2.97;;
10469;SDS011;5282;47.052;15.458;2023-03-13T14:35:41;3.77;;;2.90;;
10469;SDS011;5282;47.052;15.458;2023-03-13T14:38:15;9.00;;;3.27;;
10469;SDS011;5282;47.052;15.458;2023-03-13T14:40:44;6.63;;;3.20;;
10469;SDS011;5282;47.052;15.458;2023-03-13T14:43:18;3.00;;;2.80;;
10469;SDS011;5282;47.052;15.458;2023-03-13T14:45:47;3.27;;;2.97;;
10469;SDS011;5282;47.052;15.458;2023-03-13T14:48:18;4.23;;;3.30;;
10469;SDS011;5282;47.052;15.458;2023-03-13T14:50:47;3.23;;;3.03;;
10469;SDS011;5282;47.052;15.458;2023-03-13T14:53:18;3.27;;;3.07;;
10469;SDS011;5282;47.052;15.458;2023-03-13T14:55:47;3.73;;;3.03;;
10469;SDS011;5282;47.052;15.458;2023-03-13T14:58:25;4.40;;;2.93;;
10469;SDS011;5282;47.052;15.458;2023-03-13T15:00:54;3.33;;;3.10;;
10469;SDS011;5282;47.052;15.458;2023-03-13T15:03:27;5.27;;;2.90;;
10469;SDS011;5282;47.052;15.458;2023-03-13T15:08:49;3.43;;;3.03;;
10469;SDS011;5282;47.052;15.458;2023-03-13T15:11:40;4.07;;;3.50;;
10469;SDS011;5282;47.052;15.458;2023-03-13T15:14:30;3.50;;;3.20;;
10469;SDS011;5282;47.052;15.458;2023-03-13T15:16:58;6.87;;;3.70;;
10469;SDS011;5282;47.052;15.458;2023-03-13T15:19:25;3.67;;;3.37;;
10469;SDS011;5282;47.052;15.458;2023-03-13T15:21:52;3.63;;;3.43;;
10469;SDS011;5282;47.052;15.458;2023-03-13T15:24:21;7.70;;;3.90;;
10469;SDS011;5282;47.052;15.458;2023-03-13T15:26:48;8.10;;;3.57;;
10469;SDS011;5282;47.052;15.458;2023-03-13T15:29:15;8.53;;;3.90;;
10469;SDS011;5282;47.052;15.458;2023-03-13T15:31:42;4.67;;;3.07;;
10469;SDS011;5282;47.052;15.458;2023-03-13T15:34:10;6.93;;;3.10;;
10469;SDS011;5282;47.052;15.458;2023-03-13T15:36:38;3.17;;;2.87;;